sensor_id;sensor_type;location;lat;lon;timestamp;pressure;altitude;pressure_sealevel;temperature;humidity
61474;BME280;53694;49.784;30.150;2022-09-23T00:00:10;99474.72;;;13.01;69.78
61474;BME280;53694;49.784;30.150;2022-09-23T00:01:13;99473.28;;;13.18;69.02
61474;BME280;53694;49.784;30.150;2022-09-23T00:02:15;99474.98;;;13.33;68.55
61474;BME280;53694;49.784;30.150;2022-09-23T00:03:16;99472.70;;;13.42;68.31
61474;BME280;53694;49.784;30.150;2022-09-23T00:04:18;99474.22;;;13.36;67.83
61474;BME280;53694;49.784;30.150;2022-09-23T00:05:20;99469.34;;;13.19;68.25
61474;BME280;53694;49.784;30.150;2022-09-23T00:06:23;99464.45;;;12.98;68.83
61474;BME280;53694;49.784;30.150;2022-09-23T00:07:24;99470.53;;;12.73;69.47
61474;BME280;53694;49.784;30.150;2022-09-23T00:08:26;99463.20;;;12.47;70.13
61474;BME280;53694;49.784;30.150;2022-09-23T00:09:28;99466.85;;;12.21;70.92
61474;BME280;53694;49.784;30.150;2022-09-23T00:10:30;99473.28;;;11.99;71.68
61474;BME280;53694;49.784;30.150;2022-09-23T00:11:31;99475.78;;;11.81;72.45
61474;BME280;53694;49.784;30.150;2022-09-23T00:12:33;99474.17;;;11.80;72.80
61474;BME280;53694;49.784;30.150;2022-09-23T00:13:35;99470.82;;;11.90;72.81
61474;BME280;53694;49.784;30.150;2022-09-23T00:14:38;99464.78;;;12.11;72.73
61474;BME280;53694;49.784;30.150;2022-09-23T00:15:39;99470.93;;;12.35;72.08
61474;BME280;53694;49.784;30.150;2022-09-23T00:16:41;99472.77;;;12.61;71.47
61474;BME280;53694;49.784;30.150;2022-09-23T00:17:44;99474.97;;;12.85;70.60
61474;BME280;53694;49.784;30.150;2022-09-23T00:18:46;99466.91;;;13.10;70.04
61474;BME280;53694;49.784;30.150;2022-09-23T00:19:48;99467.89;;;13.32;69.24
61474;BME280;53694;49.784;30.150;2022-09-23T00:20:50;99468.03;;;13.54;68.60
61474;BME280;53694;49.784;30.150;2022-09-23T00:21:51;99468.13;;;13.71;67.83
61474;BME280;53694;49.784;30.150;2022-09-23T00:22:53;99471.34;;;13.81;67.17
61474;BME280;53694;49.784;30.150;2022-09-23T00:23:54;99463.41;;;13.75;66.85
61474;BME280;53694;49.784;30.150;2022-09-23T00:24:56;99467.27;;;13.57;66.83
61474;BME280;53694;49.784;30.150;2022-09-23T00:25:59;99458.44;;;13.30;67.48
61474;BME280;53694;49.784;30.150;2022-09-23T00:27:01;99461.73;;;13.01;68.23
61474;BME280;53694;49.784;30.150;2022-09-23T00:28:03;99457.14;;;12.72;69.16
61474;BME280;53694;49.784;30.150;2022-09-23T00:29:05;99455.69;;;12.44;69.92
61474;BME280;53694;49.784;30.150;2022-09-23T00:30:08;99460.52;;;12.17;70.74
61474;BME280;53694;49.784;30.150;2022-09-23T00:31:22;99460.16;;;11.89;71.52
61474;BME280;53694;49.784;30.150;2022-09-23T00:32:24;99455.91;;;11.65;72.47
61474;BME280;53694;49.784;30.150;2022-09-23T00:33:26;99458.78;;;11.45;73.33
61474;BME280;53694;49.784;30.150;2022-09-23T00:34:27;99451.70;;;11.44;73.71
61474;BME280;53694;49.784;30.150;2022-09-23T00:35:29;99452.66;;;11.56;73.70
61474;BME280;53694;49.784;30.150;2022-09-23T00:36:31;99450.92;;;11.74;73.55
61474;BME280;53694;49.784;30.150;2022-09-23T00:37:32;99454.81;;;11.99;73.23
61474;BME280;53694;49.784;30.150;2022-09-23T00:38:34;99454.31;;;12.24;72.42
61474;BME280;53694;49.784;30.150;2022-09-23T00:39:35;99449.06;;;12.49;71.80
61474;BME280;53694;49.784;30.150;2022-09-23T00:40:42;99449.70;;;12.76;71.45
61474;BME280;53694;49.784;30.150;2022-09-23T00:41:44;99453.85;;;13.00;70.14
61474;BME280;53694;49.784;30.150;2022-09-23T00:42:48;99455.95;;;13.21;69.11
61474;BME280;53694;49.784;30.150;2022-09-23T00:43:53;99453.76;;;13.41;68.74
61474;BME280;53694;49.784;30.150;2022-09-23T00:44:57;99449.13;;;13.56;67.88
61474;BME280;53694;49.784;30.150;2022-09-23T00:45:59;99458.64;;;13.65;67.59
61474;BME280;53694;49.784;30.150;2022-09-23T00:47:01;99451.52;;;13.61;67.38
61474;BME280;53694;49.784;30.150;2022-09-23T00:48:03;99450.63;;;13.46;67.71
61474;BME280;53694;49.784;30.150;2022-09-23T00:49:18;99449.70;;;13.24;67.87
61474;BME280;53694;49.784;30.150;2022-09-23T00:50:33;99447.06;;;12.90;68.21
61474;BME280;53694;49.784;30.150;2022-09-23T00:51:38;99450.69;;;12.54;69.52
61474;BME280;53694;49.784;30.150;2022-09-23T00:52:41;99450.30;;;12.18;70.51
61474;BME280;53694;49.784;30.150;2022-09-23T00:53:48;99450.33;;;11.88;71.47
61474;BME280;53694;49.784;30.150;2022-09-23T00:54:53;99460.63;;;11.64;72.41
61474;BME280;53694;49.784;30.150;2022-09-23T00:55:59;99457.61;;;11.46;73.21
61474;BME280;53694;49.784;30.150;2022-09-23T00:57:01;99456.03;;;11.45;73.62
61474;BME280;53694;49.784;30.150;2022-09-23T00:58:06;99455.86;;;11.61;73.89
61474;BME280;53694;49.784;30.150;2022-09-23T00:59:09;99451.89;;;11.85;73.49
61474;BME280;53694;49.784;30.150;2022-09-23T01:00:12;99454.97;;;12.14;72.91
61474;BME280;53694;49.784;30.150;2022-09-23T01:01:14;99455.28;;;12.42;71.96
61474;BME280;53694;49.784;30.150;2022-09-23T01:02:19;99448.45;;;12.70;71.11
61474;BME280;53694;49.784;30.150;2022-09-23T01:03:21;99457.76;;;12.99;70.26
61474;BME280;53694;49.784;30.150;2022-09-23T01:04:23;99449.28;;;13.22;69.19
61474;BME280;53694;49.784;30.150;2022-09-23T01:05:27;99454.58;;;13.45;68.38
61474;BME280;53694;49.784;30.150;2022-09-23T01:06:28;99453.91;;;13.66;67.55
61474;BME280;53694;49.784;30.150;2022-09-23T01:07:30;99450.40;;;13.76;66.83
61474;BME280;53694;49.784;30.150;2022-09-23T01:08:32;99446.84;;;13.68;66.54
61474;BME280;53694;49.784;30.150;2022-09-23T01:09:34;99455.39;;;13.49;66.98
61474;BME280;53694;49.784;30.150;2022-09-23T01:13:35;99452.61;;;12.49;69.40
61474;BME280;53694;49.784;30.150;2022-09-23T01:14:44;99451.02;;;12.11;70.64
61474;BME280;53694;49.784;30.150;2022-09-23T01:15:50;99450.72;;;11.86;71.59
61474;BME280;53694;49.784;30.150;2022-09-23T01:20:04;99449.36;;;11.46;73.75
61474;BME280;53694;49.784;30.150;2022-09-23T01:24:19;99450.69;;;12.54;71.28
61474;BME280;53694;49.784;30.150;2022-09-23T01:30:33;99446.94;;;13.90;66.22
61474;BME280;53694;49.784;30.150;2022-09-23T01:33:58;99445.70;;;13.18;67.37
61474;BME280;53694;49.784;30.150;2022-09-23T01:40:22;99440.89;;;11.59;72.50
61474;BME280;53694;49.784;30.150;2022-09-23T01:42:52;99446.26;;;11.48;73.68
61474;BME280;53694;49.784;30.150;2022-09-23T01:44:04;99447.38;;;11.73;73.32
61474;BME280;53694;49.784;30.150;2022-09-23T01:45:22;99443.80;;;11.99;72.76
61474;BME280;53694;49.784;30.150;2022-09-23T01:46:33;99442.52;;;12.27;71.93
61474;BME280;53694;49.784;30.150;2022-09-23T01:47:38;99440.49;;;12.58;71.04
61474;BME280;53694;49.784;30.150;2022-09-23T01:48:50;99438.36;;;12.85;70.18
61474;BME280;53694;49.784;30.150;2022-09-23T01:49:58;99442.89;;;13.11;69.61
61474;BME280;53694;49.784;30.150;2022-09-23T01:51:07;99441.09;;;13.33;68.61
61474;BME280;53694;49.784;30.150;2022-09-23T01:55:11;99440.44;;;13.54;67.23
61474;BME280;53694;49.784;30.150;2022-09-23T01:56:29;99443.44;;;13.27;67.66
61474;BME280;53694;49.784;30.150;2022-09-23T01:57:34;99446.70;;;12.95;68.38
61474;BME280;53694;49.784;30.150;2022-09-23T01:58:45;99446.83;;;12.62;69.30
61474;BME280;53694;49.784;30.150;2022-09-23T01:59:52;99441.03;;;12.33;70.18
61474;BME280;53694;49.784;30.150;2022-09-23T02:00:59;99435.95;;;12.01;71.11
61474;BME280;53694;49.784;30.150;2022-09-23T02:02:05;99441.93;;;11.77;72.02
61474;BME280;53694;49.784;30.150;2022-09-23T02:03:14;99444.48;;;11.63;72.80
61474;BME280;53694;49.784;30.150;2022-09-23T02:04:22;99440.20;;;11.65;73.35
61474;BME280;53694;49.784;30.150;2022-09-23T02:05:36;99439.28;;;11.84;73.08
61474;BME280;53694;49.784;30.150;2022-09-23T02:06:42;99439.58;;;12.09;72.59
61474;BME280;53694;49.784;30.150;2022-09-23T02:08:05;99431.24;;;12.39;71.83
61474;BME280;53694;49.784;30.150;2022-09-23T02:09:15;99439.03;;;12.71;71.34
61474;BME280;53694;49.784;30.150;2022-09-23T02:10:21;99435.38;;;13.08;70.00
61474;BME280;53694;49.784;30.150;2022-09-23T02:11:24;99438.00;;;13.41;68.89
61474;BME280;53694;49.784;30.150;2022-09-23T02:12:27;99435.78;;;13.65;67.82
61474;BME280;53694;49.784;30.150;2022-09-23T02:14:48;99427.20;;;13.88;66.23
61474;BME280;53694;49.784;30.150;2022-09-23T02:15:52;99436.21;;;13.74;66.18
61474;BME280;53694;49.784;30.150;2022-09-23T02:16:58;99441.99;;;13.47;66.79
61474;BME280;53694;49.784;30.150;2022-09-23T02:18:18;99441.38;;;13.17;67.56
61474;BME280;53694;49.784;30.150;2022-09-23T02:20:26;99438.41;;;12.47;69.63
61474;BME280;53694;49.784;30.150;2022-09-23T02:21:33;99433.77;;;12.18;70.58
61474;BME280;53694;49.784;30.150;2022-09-23T02:22:47;99431.50;;;11.90;71.52
61474;BME280;53694;49.784;30.150;2022-09-23T02:23:50;99439.36;;;11.61;72.50
61474;BME280;53694;49.784;30.150;2022-09-23T02:24:55;99440.70;;;11.44;73.44
61474;BME280;53694;49.784;30.150;2022-09-23T02:26:24;99435.61;;;11.46;73.80
61474;BME280;53694;49.784;30.150;2022-09-23T02:27:39;99438.13;;;11.59;73.79
61474;BME280;53694;49.784;30.150;2022-09-23T02:30:09;99442.08;;;12.21;72.48
61474;BME280;53694;49.784;30.150;2022-09-23T02:31:32;99431.02;;;12.55;71.52
61474;BME280;53694;49.784;30.150;2022-09-23T02:32:29;99432.88;;;12.88;70.76
61474;BME280;53694;49.784;30.150;2022-09-23T02:33:36;99434.68;;;13.18;69.45
61474;BME280;53694;49.784;30.150;2022-09-23T02:35:58;99427.10;;;13.66;68.04
61474;BME280;53694;49.784;30.150;2022-09-23T02:39:25;99428.59;;;13.49;67.36
61474;BME280;53694;49.784;30.150;2022-09-23T02:40:30;99432.31;;;13.20;67.97
61474;BME280;53694;49.784;30.150;2022-09-23T02:41:55;99423.44;;;12.89;68.68
61474;BME280;53694;49.784;30.150;2022-09-23T02:43:15;99431.45;;;12.61;69.61
61474;BME280;53694;49.784;30.150;2022-09-23T02:44:18;99421.27;;;12.24;70.70
61474;BME280;53694;49.784;30.150;2022-09-23T02:45:21;99424.83;;;11.91;71.74
61474;BME280;53694;49.784;30.150;2022-09-23T02:46:22;99422.95;;;11.68;72.63
61474;BME280;53694;49.784;30.150;2022-09-23T02:47:27;99424.31;;;11.51;73.51
61474;BME280;53694;49.784;30.150;2022-09-23T02:48:50;99425.78;;;11.45;73.69
61474;BME280;53694;49.784;30.150;2022-09-23T02:49:37;99420.39;;;11.53;73.84
61474;BME280;53694;49.784;30.150;2022-09-23T02:50:39;99419.88;;;11.73;73.74
61474;BME280;53694;49.784;30.150;2022-09-23T02:51:41;99424.92;;;11.98;73.19
61474;BME280;53694;49.784;30.150;2022-09-23T02:52:42;99417.34;;;12.25;72.71
61474;BME280;53694;49.784;30.150;2022-09-23T02:53:45;99419.95;;;12.51;71.93
61474;BME280;53694;49.784;30.150;2022-09-23T02:54:47;99422.94;;;12.76;70.79
61474;BME280;53694;49.784;30.150;2022-09-23T02:55:49;99424.28;;;12.97;69.82
61474;BME280;53694;49.784;30.150;2022-09-23T02:56:51;99425.20;;;13.15;69.21
61474;BME280;53694;49.784;30.150;2022-09-23T02:57:53;99426.52;;;13.32;68.45
61474;BME280;53694;49.784;30.150;2022-09-23T02:58:55;99431.30;;;13.39;68.12
61474;BME280;53694;49.784;30.150;2022-09-23T02:59:57;99435.55;;;13.29;67.98
61474;BME280;53694;49.784;30.150;2022-09-23T03:01:14;99424.77;;;13.10;68.52
61474;BME280;53694;49.784;30.150;2022-09-23T03:03:40;99430.58;;;12.49;69.67
61474;BME280;53694;49.784;30.150;2022-09-23T03:05:57;99425.42;;;11.77;71.97
61474;BME280;53694;49.784;30.150;2022-09-23T03:08:27;99425.09;;;11.25;74.15
61474;BME280;53694;49.784;30.150;2022-09-23T03:09:45;99427.84;;;11.25;74.70
61474;BME280;53694;49.784;30.150;2022-09-23T03:15:14;99414.32;;;12.37;72.05
61474;BME280;53694;49.784;30.150;2022-09-23T03:18:51;99420.95;;;13.25;68.83
61474;BME280;53694;49.784;30.150;2022-09-23T03:20:00;99430.56;;;13.49;67.77
61474;BME280;53694;49.784;30.150;2022-09-23T03:21:12;99424.70;;;13.58;67.45
61474;BME280;53694;49.784;30.150;2022-09-23T03:22:45;99430.17;;;13.47;67.12
61474;BME280;53694;49.784;30.150;2022-09-23T03:23:48;99423.68;;;13.21;67.78
61474;BME280;53694;49.784;30.150;2022-09-23T03:24:51;99421.79;;;12.81;68.85
61474;BME280;53694;49.784;30.150;2022-09-23T03:25:57;99421.53;;;12.53;69.58
61474;BME280;53694;49.784;30.150;2022-09-23T03:27:02;99420.44;;;12.20;70.49
61474;BME280;53694;49.784;30.150;2022-09-23T03:28:05;99426.36;;;11.88;71.39
61474;BME280;53694;49.784;30.150;2022-09-23T03:29:08;99420.84;;;11.58;72.52
61474;BME280;53694;49.784;30.150;2022-09-23T03:30:12;99438.33;;;11.43;73.42
61474;BME280;53694;49.784;30.150;2022-09-23T03:31:15;99432.39;;;11.41;73.95
61474;BME280;53694;49.784;30.150;2022-09-23T03:32:19;99435.31;;;11.51;73.94
61474;BME280;53694;49.784;30.150;2022-09-23T03:33:24;99433.20;;;11.71;73.75
61474;BME280;53694;49.784;30.150;2022-09-23T03:34:28;99431.22;;;11.98;73.25
61474;BME280;53694;49.784;30.150;2022-09-23T03:35:33;99431.50;;;12.23;72.62
61474;BME280;53694;49.784;30.150;2022-09-23T03:36:41;99429.39;;;12.50;71.68
61474;BME280;53694;49.784;30.150;2022-09-23T03:37:47;99427.23;;;12.74;70.97
61474;BME280;53694;49.784;30.150;2022-09-23T03:38:52;99425.47;;;12.99;70.43
61474;BME280;53694;49.784;30.150;2022-09-23T03:39:58;99422.92;;;13.24;69.50
61474;BME280;53694;49.784;30.150;2022-09-23T03:41:01;99429.75;;;13.45;68.69
61474;BME280;53694;49.784;30.150;2022-09-23T03:42:19;99423.16;;;13.64;68.01
61474;BME280;53694;49.784;30.150;2022-09-23T03:43:20;99430.27;;;13.72;66.98
61474;BME280;53694;49.784;30.150;2022-09-23T03:44:22;99432.19;;;13.57;66.40
61474;BME280;53694;49.784;30.150;2022-09-23T03:45:26;99428.86;;;13.27;67.08
61474;BME280;53694;49.784;30.150;2022-09-23T03:46:29;99423.50;;;12.96;67.88
61474;BME280;53694;49.784;30.150;2022-09-23T03:47:30;99421.22;;;12.61;68.91
61474;BME280;53694;49.784;30.150;2022-09-23T03:48:32;99429.97;;;12.30;69.85
61474;BME280;53694;49.784;30.150;2022-09-23T03:49:37;99426.50;;;11.99;70.76
61474;BME280;53694;49.784;30.150;2022-09-23T03:50:40;99424.53;;;11.69;71.86
61474;BME280;53694;49.784;30.150;2022-09-23T03:51:41;99421.02;;;11.42;72.78
61474;BME280;53694;49.784;30.150;2022-09-23T03:52:43;99425.09;;;11.25;73.60
61474;BME280;53694;49.784;30.150;2022-09-23T03:53:45;99419.19;;;11.23;74.14
61474;BME280;53694;49.784;30.150;2022-09-23T03:54:47;99425.65;;;11.35;74.04
61474;BME280;53694;49.784;30.150;2022-09-23T03:55:48;99421.97;;;11.54;73.97
61474;BME280;53694;49.784;30.150;2022-09-23T03:56:50;99419.16;;;11.80;73.38
61474;BME280;53694;49.784;30.150;2022-09-23T03:57:51;99415.55;;;12.06;72.52
61474;BME280;53694;49.784;30.150;2022-09-23T03:58:53;99420.17;;;12.32;71.66
61474;BME280;53694;49.784;30.150;2022-09-23T03:59:54;99420.00;;;12.55;70.47
61474;BME280;53694;49.784;30.150;2022-09-23T04:00:56;99419.39;;;12.76;69.88
61474;BME280;53694;49.784;30.150;2022-09-23T04:01:58;99416.80;;;12.97;69.21
61474;BME280;53694;49.784;30.150;2022-09-23T04:03:00;99419.31;;;13.17;68.71
61474;BME280;53694;49.784;30.150;2022-09-23T04:04:02;99420.61;;;13.30;68.00
61474;BME280;53694;49.784;30.150;2022-09-23T04:05:04;99419.77;;;13.22;67.43
61474;BME280;53694;49.784;30.150;2022-09-23T04:06:06;99415.66;;;13.02;67.49
61474;BME280;53694;49.784;30.150;2022-09-23T04:07:08;99418.57;;;12.72;68.31
61474;BME280;53694;49.784;30.150;2022-09-23T04:08:10;99424.59;;;12.40;69.27
61474;BME280;53694;49.784;30.150;2022-09-23T04:09:11;99419.52;;;12.09;70.29
61474;BME280;53694;49.784;30.150;2022-09-23T04:10:14;99430.16;;;11.80;71.24
61474;BME280;53694;49.784;30.150;2022-09-23T04:11:15;99421.17;;;11.53;72.30
61474;BME280;53694;49.784;30.150;2022-09-23T04:12:17;99424.88;;;11.38;73.11
61474;BME280;53694;49.784;30.150;2022-09-23T04:13:18;99421.73;;;11.36;73.53
61474;BME280;53694;49.784;30.150;2022-09-23T04:14:20;99417.13;;;11.43;73.61
61474;BME280;53694;49.784;30.150;2022-09-23T04:15:22;99420.49;;;11.60;73.20
61474;BME280;53694;49.784;30.150;2022-09-23T04:16:24;99417.95;;;11.78;72.75
61474;BME280;53694;49.784;30.150;2022-09-23T04:17:26;99416.28;;;11.99;72.19
61474;BME280;53694;49.784;30.150;2022-09-23T04:18:27;99419.27;;;12.21;71.50
61474;BME280;53694;49.784;30.150;2022-09-23T04:19:29;99423.81;;;12.43;70.92
61474;BME280;53694;49.784;30.150;2022-09-23T04:20:31;99416.17;;;12.67;70.44
61474;BME280;53694;49.784;30.150;2022-09-23T04:21:32;99419.50;;;12.90;69.36
61474;BME280;53694;49.784;30.150;2022-09-23T04:22:34;99418.83;;;13.08;68.51
61474;BME280;53694;49.784;30.150;2022-09-23T04:23:35;99420.10;;;13.21;67.75
61474;BME280;53694;49.784;30.150;2022-09-23T04:24:37;99428.09;;;13.30;67.56
61474;BME280;53694;49.784;30.150;2022-09-23T04:25:46;99424.89;;;13.24;67.63
61474;BME280;53694;49.784;30.150;2022-09-23T04:26:52;99418.87;;;13.11;67.91
61474;BME280;53694;49.784;30.150;2022-09-23T04:27:53;99419.46;;;12.87;68.17
61474;BME280;53694;49.784;30.150;2022-09-23T04:28:55;99421.53;;;12.53;68.85
61474;BME280;53694;49.784;30.150;2022-09-23T04:29:56;99417.73;;;12.23;69.79
61474;BME280;53694;49.784;30.150;2022-09-23T04:31:02;99423.27;;;11.93;70.69
61474;BME280;53694;49.784;30.150;2022-09-23T04:32:02;99428.41;;;11.65;71.61
61474;BME280;53694;49.784;30.150;2022-09-23T04:33:04;99429.24;;;11.39;72.70
61474;BME280;53694;49.784;30.150;2022-09-23T04:34:05;99430.13;;;11.20;73.40
61474;BME280;53694;49.784;30.150;2022-09-23T04:35:07;99426.19;;;11.17;73.97
61474;BME280;53694;49.784;30.150;2022-09-23T04:36:09;99425.92;;;11.26;74.05
61474;BME280;53694;49.784;30.150;2022-09-23T04:37:10;99425.73;;;11.42;73.74
61474;BME280;53694;49.784;30.150;2022-09-23T04:38:12;99424.87;;;11.64;73.26
61474;BME280;53694;49.784;30.150;2022-09-23T04:39:14;99433.03;;;11.87;72.46
61474;BME280;53694;49.784;30.150;2022-09-23T04:40:16;99423.85;;;12.10;71.81
61474;BME280;53694;49.784;30.150;2022-09-23T04:41:18;99423.77;;;12.36;71.29
61474;BME280;53694;49.784;30.150;2022-09-23T04:42:20;99423.97;;;12.61;70.38
61474;BME280;53694;49.784;30.150;2022-09-23T04:43:22;99426.12;;;12.82;69.46
61474;BME280;53694;49.784;30.150;2022-09-23T04:44:23;99431.38;;;12.98;68.64
61474;BME280;53694;49.784;30.150;2022-09-23T04:45:25;99422.83;;;13.14;68.11
61474;BME280;53694;49.784;30.150;2022-09-23T04:46:27;99421.77;;;13.25;67.60
61474;BME280;53694;49.784;30.150;2022-09-23T04:47:30;99416.56;;;13.20;67.50
61474;BME280;53694;49.784;30.150;2022-09-23T04:48:32;99420.80;;;13.07;67.58
61474;BME280;53694;49.784;30.150;2022-09-23T04:49:34;99423.36;;;12.82;67.77
61474;BME280;53694;49.784;30.150;2022-09-23T04:50:36;99419.17;;;12.51;68.70
61474;BME280;53694;49.784;30.150;2022-09-23T04:51:38;99420.44;;;12.20;69.66
61474;BME280;53694;49.784;30.150;2022-09-23T04:52:39;99422.43;;;11.89;70.58
61474;BME280;53694;49.784;30.150;2022-09-23T04:53:42;99416.97;;;11.63;71.59
61474;BME280;53694;49.784;30.150;2022-09-23T04:54:44;99426.49;;;11.39;72.49
61474;BME280;53694;49.784;30.150;2022-09-23T04:55:45;99427.06;;;11.25;73.45
61474;BME280;53694;49.784;30.150;2022-09-23T04:56:47;99427.06;;;11.25;73.87
61474;BME280;53694;49.784;30.150;2022-09-23T04:57:48;99422.57;;;11.40;73.85
61474;BME280;53694;49.784;30.150;2022-09-23T04:58:50;99424.03;;;11.60;73.40
61474;BME280;53694;49.784;30.150;2022-09-23T04:59:52;99423.95;;;11.83;72.61
61474;BME280;53694;49.784;30.150;2022-09-23T05:00:54;99421.48;;;12.08;71.95
61474;BME280;53694;49.784;30.150;2022-09-23T05:01:55;99422.16;;;12.35;71.11
61474;BME280;53694;49.784;30.150;2022-09-23T05:02:57;99423.97;;;12.61;70.39
61474;BME280;53694;49.784;30.150;2022-09-23T05:04:05;99421.83;;;12.85;69.44
61474;BME280;53694;49.784;30.150;2022-09-23T05:05:03;99425.13;;;13.05;68.50
61474;BME280;53694;49.784;30.150;2022-09-23T05:06:06;99425.28;;;13.22;67.87
61474;BME280;53694;49.784;30.150;2022-09-23T05:07:08;99429.28;;;13.32;67.46
61474;BME280;53694;49.784;30.150;2022-09-23T05:08:09;99430.86;;;13.30;67.26
61474;BME280;53694;49.784;30.150;2022-09-23T05:09:17;99429.53;;;13.13;67.34
61474;BME280;53694;49.784;30.150;2022-09-23T05:10:18;99427.37;;;12.88;67.74
61474;BME280;53694;49.784;30.150;2022-09-23T05:11:21;99431.80;;;12.56;68.60
61474;BME280;53694;49.784;30.150;2022-09-23T05:12:22;99434.30;;;12.31;69.49
61474;BME280;53694;49.784;30.150;2022-09-23T05:13:24;99439.13;;;12.04;70.38
61474;BME280;53694;49.784;30.150;2022-09-23T05:14:26;99434.47;;;11.78;71.18
61474;BME280;53694;49.784;30.150;2022-09-23T05:15:28;99430.59;;;11.52;71.94
61474;BME280;53694;49.784;30.150;2022-09-23T05:16:29;99442.14;;;11.35;72.55
61474;BME280;53694;49.784;30.150;2022-09-23T05:17:31;99440.45;;;11.26;72.92
61474;BME280;53694;49.784;30.150;2022-09-23T05:18:33;99433.52;;;11.36;73.08
61474;BME280;53694;49.784;30.150;2022-09-23T05:19:35;99435.33;;;11.55;72.88
61474;BME280;53694;49.784;30.150;2022-09-23T05:20:37;99441.16;;;11.80;72.42
61474;BME280;53694;49.784;30.150;2022-09-23T05:21:38;99435.20;;;12.05;71.62
61474;BME280;53694;49.784;30.150;2022-09-23T05:22:40;99428.01;;;12.30;71.03
61474;BME280;53694;49.784;30.150;2022-09-23T05:23:47;99432.59;;;12.56;70.08
61474;BME280;53694;49.784;30.150;2022-09-23T05:24:49;99435.96;;;12.80;69.21
61474;BME280;53694;49.784;30.150;2022-09-23T05:26:02;99432.23;;;13.06;68.53
61474;BME280;53694;49.784;30.150;2022-09-23T05:27:04;99437.92;;;13.27;67.90
61474;BME280;53694;49.784;30.150;2022-09-23T05:28:05;99437.23;;;13.44;66.67
61474;BME280;53694;49.784;30.150;2022-09-23T05:29:07;99431.66;;;13.37;66.37
61474;BME280;53694;49.784;30.150;2022-09-23T05:30:10;99438.62;;;13.17;66.35
61474;BME280;53694;49.784;30.150;2022-09-23T05:31:14;99435.67;;;12.92;67.30
61474;BME280;53694;49.784;30.150;2022-09-23T05:32:15;99437.42;;;12.66;68.05
61474;BME280;53694;49.784;30.150;2022-09-23T05:33:17;99430.09;;;12.40;68.79
61474;BME280;53694;49.784;30.150;2022-09-23T05:34:18;99435.34;;;12.15;69.60
61474;BME280;53694;49.784;30.150;2022-09-23T05:35:20;99438.94;;;11.89;70.52
61474;BME280;53694;49.784;30.150;2022-09-23T05:36:22;99430.03;;;11.69;71.43
61474;BME280;53694;49.784;30.150;2022-09-23T05:37:24;99431.39;;;11.53;72.13
61474;BME280;53694;49.784;30.150;2022-09-23T05:38:30;99434.41;;;11.44;72.67
61474;BME280;53694;49.784;30.150;2022-09-23T05:39:32;99431.73;;;11.51;72.81
61474;BME280;53694;49.784;30.150;2022-09-23T05:40:33;99433.58;;;11.70;72.58
61474;BME280;53694;49.784;30.150;2022-09-23T05:41:35;99430.37;;;11.94;72.12
61474;BME280;53694;49.784;30.150;2022-09-23T05:42:36;99423.98;;;12.20;71.19
61474;BME280;53694;49.784;30.150;2022-09-23T05:43:38;99431.33;;;12.46;70.32
61474;BME280;53694;49.784;30.150;2022-09-23T05:44:40;99427.23;;;12.74;69.75
61474;BME280;53694;49.784;30.150;2022-09-23T05:45:41;99425.89;;;13.01;68.58
61474;BME280;53694;49.784;30.150;2022-09-23T05:46:43;99429.22;;;13.25;68.04
61474;BME280;53694;49.784;30.150;2022-09-23T05:47:45;99432.48;;;13.41;67.04
61474;BME280;53694;49.784;30.150;2022-09-23T05:48:46;99440.39;;;13.43;66.57
61474;BME280;53694;49.784;30.150;2022-09-23T05:49:48;99432.01;;;13.29;66.56
61474;BME280;53694;49.784;30.150;2022-09-23T05:50:50;99434.23;;;13.09;67.10
61474;BME280;53694;49.784;30.150;2022-09-23T05:51:52;99428.13;;;12.85;67.73
61474;BME280;53694;49.784;30.150;2022-09-23T05:52:54;99430.30;;;12.62;68.50
61474;BME280;53694;49.784;30.150;2022-09-23T05:53:55;99429.67;;;12.38;69.28
61474;BME280;53694;49.784;30.150;2022-09-23T05:54:57;99435.34;;;12.15;70.05
61474;BME280;53694;49.784;30.150;2022-09-23T05:55:58;99431.16;;;11.95;70.87
61474;BME280;53694;49.784;30.150;2022-09-23T05:57:00;99433.67;;;11.77;71.55
61474;BME280;53694;49.784;30.150;2022-09-23T05:58:01;99441.04;;;11.69;72.14
61474;BME280;53694;49.784;30.150;2022-09-23T05:59:03;99431.66;;;11.74;71.59
61474;BME280;53694;49.784;30.150;2022-09-23T06:00:07;99431.45;;;11.86;71.25
61474;BME280;53694;49.784;30.150;2022-09-23T06:01:11;99437.56;;;12.06;70.78
61474;BME280;53694;49.784;30.150;2022-09-23T06:02:13;99428.44;;;12.32;70.30
61474;BME280;53694;49.784;30.150;2022-09-23T06:03:16;99436.95;;;12.61;69.55
61474;BME280;53694;49.784;30.150;2022-09-23T06:04:18;99426.61;;;12.91;68.92
61474;BME280;53694;49.784;30.150;2022-09-23T06:05:20;99434.68;;;13.18;67.68
61474;BME280;53694;49.784;30.150;2022-09-23T06:06:27;99434.03;;;13.35;66.54
61474;BME280;53694;49.784;30.150;2022-09-23T06:07:29;99439.52;;;13.32;65.75
61474;BME280;53694;49.784;30.150;2022-09-23T06:08:31;99440.56;;;13.13;66.11
61474;BME280;53694;49.784;30.150;2022-09-23T06:09:33;99441.58;;;12.94;66.42
61474;BME280;53694;49.784;30.150;2022-09-23T06:10:42;99445.70;;;12.70;66.84
61474;BME280;53694;49.784;30.150;2022-09-23T06:11:44;99438.36;;;12.40;67.67
61474;BME280;53694;49.784;30.150;2022-09-23T06:12:45;99451.02;;;12.11;68.67
61474;BME280;53694;49.784;30.150;2022-09-23T06:13:47;99448.38;;;11.88;69.51
61474;BME280;53694;49.784;30.150;2022-09-23T06:14:48;99444.14;;;11.68;70.32
61474;BME280;53694;49.784;30.150;2022-09-23T06:15:50;99452.55;;;11.48;70.97
61474;BME280;53694;49.784;30.150;2022-09-23T06:16:51;99449.95;;;11.33;71.74
61474;BME280;53694;49.784;30.150;2022-09-23T06:17:53;99450.22;;;11.24;72.41
61474;BME280;53694;49.784;30.150;2022-09-23T06:18:54;99452.35;;;11.34;72.70